Time;durP1;ratioP1;P1;durP2;ratioP2;P2;SDS_P1;SDS_P2;PMS_P1;PMS_P2;Temp;Humidity;BMP_temperature;BMP_pressure;BME280_temperature;BME280_humidity;BME280_pressure;Samples;Min_cycle;Max_cycle;Signal;HPM_P1;HPM_P2
2023/03/28 00:00:15;;;;;;;5.32;3.40;;;;;;;;;;5012611;28;20062;-61
2023/03/28 00:02:41;;;;;;;7.43;3.67;;;;;;;;;;5012349;28;20100;-63
2023/03/28 00:05:07;;;;;;;7.30;3.63;;;;;;;;;;5012073;28;20508;-61
2023/03/28 00:07:33;;;;;;;8.02;3.35;;;;;;;;;;5012819;28;20030;-61
2023/03/28 00:09:59;;;;;;;5.93;3.22;;;;;;;;;;5012178;28;20022;-61
2023/03/28 00:12:25;;;;;;;7.05;4.30;;;;;;;;;;5012481;28;20354;-61
2023/03/28 00:14:51;;;;;;;6.65;3.80;;;;;;;;;;5012049;28;20093;-62
2023/03/28 00:17:17;;;;;;;5.97;3.50;;;;;;;;;;5012320;28;20113;-61
2023/03/28 00:19:45;;;;;;;6.82;3.30;;;;;;;;;;5011608;28;20097;-61
2023/03/28 00:22:11;;;;;;;6.00;3.70;;;;;;;;;;5012079;28;20441;-61
2023/03/28 00:24:37;;;;;;;8.32;3.92;;;;;;;;;;5012231;28;20362;-61
2023/03/28 00:27:06;;;;;;;9.13;4.20;;;;;;;;;;5012289;28;20045;-61
2023/03/28 00:29:32;;;;;;;7.78;4.38;;;;;;;;;;5012341;28;20025;-61
2023/03/28 00:31:58;;;;;;;6.78;3.97;;;;;;;;;;5011787;28;20022;-61
2023/03/28 00:34:24;;;;;;;6.35;4.05;;;;;;;;;;5011645;28;20121;-61
2023/03/28 00:36:52;;;;;;;5.47;3.90;;;;;;;;;;5011140;28;20030;-61
2023/03/28 00:39:19;;;;;;;7.63;3.83;;;;;;;;;;4994258;28;20544;-62
2023/03/28 00:41:45;;;;;;;6.63;3.95;;;;;;;;;;5011495;28;20028;-62
2023/03/28 00:44:30;;;;;;;7.57;3.97;;;;;;;;;;5011697;28;20033;-62
2023/03/28 00:46:56;;;;;;;8.25;3.67;;;;;;;;;;5011462;28;20529;-62
2023/03/28 00:49:24;;;;;;;5.82;3.78;;;;;;;;;;5011922;28;20029;-62
2023/03/28 00:51:53;;;;;;;5.95;3.45;;;;;;;;;;5011417;28;20113;-62
2023/03/28 00:54:19;;;;;;;7.43;4.32;;;;;;;;;;4993749;28;20045;-62
2023/03/28 00:56:48;;;;;;;7.25;3.88;;;;;;;;;;5011464;28;20054;-61
2023/03/28 00:59:17;;;;;;;5.80;3.50;;;;;;;;;;5011584;28;20469;-61
2023/03/28 01:01:43;;;;;;;7.13;3.97;;;;;;;;;;5011334;28;20101;-62
2023/03/28 01:04:09;;;;;;;5.57;3.60;;;;;;;;;;5011449;28;20026;-62
2023/03/28 01:06:41;;;;;;;7.05;4.03;;;;;;;;;;5011212;28;20481;-62
2023/03/28 01:09:07;;;;;;;6.15;3.90;;;;;;;;;;5010712;28;20485;-61
2023/03/28 01:11:35;;;;;;;6.20;3.38;;;;;;;;;;5011678;28;20489;-61
2023/03/28 01:14:03;;;;;;;6.28;3.83;;;;;;;;;;5011531;28;20030;-63
2023/03/28 01:16:32;;;;;;;5.57;3.67;;;;;;;;;;5011348;28;20089;-61
2023/03/28 01:19:00;;;;;;;7.05;4.30;;;;;;;;;;5010614;28;20021;-61
2023/03/28 01:21:32;;;;;;;5.97;3.92;;;;;;;;;;5011196;28;20088;-62
2023/03/28 01:23:58;;;;;;;7.10;4.47;;;;;;;;;;5011044;28;20555;-62
2023/03/28 01:26:27;;;;;;;6.18;3.53;;;;;;;;;;5011153;28;20066;-61
2023/03/28 01:29:06;;;;;;;6.53;4.10;;;;;;;;;;5010857;28;20413;-63
2023/03/28 01:31:45;;;;;;;5.75;3.58;;;;;;;;;;5011425;28;20470;-61
2023/03/28 01:34:11;;;;;;;5.65;3.38;;;;;;;;;;5011030;28;20037;-61
2023/03/28 01:36:55;;;;;;;7.38;3.85;;;;;;;;;;5010966;28;20022;-62
2023/03/28 01:39:33;;;;;;;6.68;3.60;;;;;;;;;;5010991;28;20104;-66
2023/03/28 01:42:12;;;;;;;8.98;4.03;;;;;;;;;;5010398;28;20084;-64
2023/03/28 01:44:45;;;;;;;6.80;4.15;;;;;;;;;;5010846;28;20097;-61
2023/03/28 01:47:15;;;;;;;7.85;4.10;;;;;;;;;;5011009;28;20041;-62
2023/03/28 01:49:46;;;;;;;6.63;3.55;;;;;;;;;;5014110;28;20477;-61
2023/03/28 01:52:12;;;;;;;7.00;3.90;;;;;;;;;;5015082;28;20026;-61
2023/03/28 01:54:51;;;;;;;6.78;3.42;;;;;;;;;;5014360;28;20496;-61
2023/03/28 01:57:26;;;;;;;5.97;3.70;;;;;;;;;;5014823;28;20489;-61
2023/03/28 02:00:11;;;;;;;6.35;3.72;;;;;;;;;;5014540;28;20026;-61
2023/03/28 02:02:40;;;;;;;4.40;3.30;;;;;;;;;;4997839;28;20022;-61
2023/03/28 02:05:08;;;;;;;4.80;3.33;;;;;;;;;;5014679;28;20037;-62
2023/03/28 02:07:35;;;;;;;5.85;3.75;;;;;;;;;;5014671;28;20033;-61
2023/03/28 02:10:02;;;;;;;6.55;3.58;;;;;;;;;;5014994;28;20018;-61
2023/03/28 02:12:31;;;;;;;6.63;3.85;;;;;;;;;;5014531;28;20029;-61
2023/03/28 02:14:57;;;;;;;5.45;3.50;;;;;;;;;;5014318;28;20420;-63
2023/03/28 02:17:26;;;;;;;5.05;3.22;;;;;;;;;;5014355;28;20022;-62
2023/03/28 02:19:54;;;;;;;6.13;4.05;;;;;;;;;;5013988;28;20036;-62
2023/03/28 02:22:25;;;;;;;7.10;3.70;;;;;;;;;;5014452;28;20042;-62
2023/03/28 02:24:52;;;;;;;6.70;3.40;;;;;;;;;;5013924;28;20029;-62
2023/03/28 02:27:19;;;;;;;7.85;3.78;;;;;;;;;;5014306;28;20037;-63
2023/03/28 02:29:48;;;;;;;6.32;3.40;;;;;;;;;;5014120;28;20069;-62
2023/03/28 02:32:14;;;;;;;5.95;4.13;;;;;;;;;;5014239;28;20133;-61
2023/03/28 02:34:41;;;;;;;4.82;3.33;;;;;;;;;;5013514;28;20101;-62
2023/03/28 02:37:13;;;;;;;4.97;3.05;;;;;;;;;;5014068;28;20160;-62
2023/03/28 02:39:50;;;;;;;5.95;3.28;;;;;;;;;;5013812;28;20018;-61
2023/03/28 02:42:28;;;;;;;8.13;3.75;;;;;;;;;;5013870;28;20030;-62
2023/03/28 02:45:13;;;;;;;5.32;3.15;;;;;;;;;;5013766;28;20022;-61
2023/03/28 02:47:47;;;;;;;5.35;3.28;;;;;;;;;;5013720;28;20546;-62
2023/03/28 02:50:24;;;;;;;7.97;3.63;;;;;;;;;;4994387;28;20085;-65
2023/03/28 02:53:05;;;;;;;5.45;3.40;;;;;;;;;;4993789;28;20363;-62
2023/03/28 02:55:53;;;;;;;4.32;2.97;;;;;;;;;;4994549;28;20030;-63
2023/03/28 02:58:25;;;;;;;4.75;3.03;;;;;;;;;;4994020;28;20108;-62
2023/03/28 03:00:51;;;;;;;7.30;3.10;;;;;;;;;;4993303;28;20505;-65
2023/03/28 03:03:17;;;;;;;6.53;3.38;;;;;;;;;;5000388;28;20105;-65
2023/03/28 03:05:43;;;;;;;7.15;3.42;;;;;;;;;;5013206;28;20037;-62
2023/03/28 03:08:10;;;;;;;6.43;3.50;;;;;;;;;;5013528;28;20466;-62
2023/03/28 03:10:36;;;;;;;6.97;3.45;;;;;;;;;;5013080;28;20030;-62
2023/03/28 03:13:02;;;;;;;5.30;3.22;;;;;;;;;;5013706;28;20062;-65
2023/03/28 03:15:29;;;;;;;5.00;3.10;;;;;;;;;;5013375;28;20026;-63
2023/03/28 03:17:56;;;;;;;5.43;3.45;;;;;;;;;;5012662;28;20080;-65
2023/03/28 03:20:22;;;;;;;5.20;2.97;;;;;;;;;;5013327;28;20026;-63
2023/03/28 03:22:48;;;;;;;6.40;3.38;;;;;;;;;;5013135;28;20539;-65
2023/03/28 03:25:14;;;;;;;5.60;2.90;;;;;;;;;;5013082;28;20025;-63
2023/03/28 03:27:41;;;;;;;5.53;2.95;;;;;;;;;;5013040;28;20034;-62
2023/03/28 03:30:08;;;;;;;7.15;3.88;;;;;;;;;;5013142;28;20105;-65
2023/03/28 03:32:35;;;;;;;5.57;3.42;;;;;;;;;;5013064;28;20509;-65
2023/03/28 03:35:01;;;;;;;6.57;3.55;;;;;;;;;;5013345;28;20436;-65
2023/03/28 03:37:27;;;;;;;5.88;3.10;;;;;;;;;;5013000;28;20105;-69
2023/03/28 03:39:53;;;;;;;5.97;3.75;;;;;;;;;;5012565;28;20049;-69
2023/03/28 03:42:19;;;;;;;8.60;3.60;;;;;;;;;;5012809;28;20485;-62
2023/03/28 03:44:45;;;;;;;6.05;3.90;;;;;;;;;;5012607;28;20107;-62
2023/03/28 03:47:12;;;;;;;6.32;3.90;;;;;;;;;;5012315;28;20049;-62
2023/03/28 03:49:38;;;;;;;7.85;4.25;;;;;;;;;;5012509;28;20057;-63
2023/03/28 03:52:04;;;;;;;4.95;3.28;;;;;;;;;;5013237;28;20386;-62
2023/03/28 03:54:30;;;;;;;6.35;3.70;;;;;;;;;;5012782;28;20032;-62
2023/03/28 03:56:56;;;;;;;5.47;3.55;;;;;;;;;;5012425;28;20026;-66
2023/03/28 03:59:22;;;;;;;5.45;3.53;;;;;;;;;;5012593;28;20478;-62
2023/03/28 04:01:48;;;;;;;5.53;3.35;;;;;;;;;;5011858;28;20100;-62
2023/03/28 04:04:14;;;;;;;4.53;3.28;;;;;;;;;;5012307;28;20053;-63
2023/03/28 04:06:40;;;;;;;6.35;3.50;;;;;;;;;;5012191;28;20034;-64
2023/03/28 04:09:06;;;;;;;6.65;3.60;;;;;;;;;;5012267;28;20065;-62
2023/03/28 04:11:33;;;;;;;4.95;3.13;;;;;;;;;;5011872;28;20040;-62
2023/03/28 04:13:59;;;;;;;6.40;3.25;;;;;;;;;;5011912;28;20022;-62
2023/03/28 04:16:25;;;;;;;7.80;3.88;;;;;;;;;;5012067;28;20526;-62
2023/03/28 04:18:51;;;;;;;5.90;3.35;;;;;;;;;;5011991;28;20053;-62
2023/03/28 04:21:18;;;;;;;5.97;3.28;;;;;;;;;;4994505;28;20080;-62
2023/03/28 04:23:47;;;;;;;5.70;3.42;;;;;;;;;;5011880;28;20068;-63
2023/03/28 04:26:19;;;;;;;6.95;3.47;;;;;;;;;;5012019;28;20038;-67
2023/03/28 04:28:45;;;;;;;4.70;2.90;;;;;;;;;;5011943;28;20026;-63
2023/03/28 04:31:11;;;;;;;6.22;3.42;;;;;;;;;;5012028;28;20025;-62
2023/03/28 04:33:37;;;;;;;4.28;2.95;;;;;;;;;;5011812;28;20164;-62
2023/03/28 04:36:24;;;;;;;4.38;3.15;;;;;;;;;;5012193;28;20519;-62
2023/03/28 04:38:50;;;;;;;6.45;3.20;;;;;;;;;;5011422;28;20453;-62
2023/03/28 04:41:16;;;;;;;4.88;3.00;;;;;;;;;;5011592;28;20037;-63
2023/03/28 04:43:43;;;;;;;5.53;3.80;;;;;;;;;;5011385;28;20036;-62
2023/03/28 04:46:09;;;;;;;4.55;3.10;;;;;;;;;;5011573;28;20046;-63
2023/03/28 04:48:35;;;;;;;5.70;3.53;;;;;;;;;;5011410;28;20022;-64
2023/03/28 04:51:02;;;;;;;4.60;3.28;;;;;;;;;;5012013;28;20482;-63
2023/03/28 04:53:28;;;;;;;8.77;3.53;;;;;;;;;;5011657;28;20022;-63
2023/03/28 04:55:54;;;;;;;4.97;3.00;;;;;;;;;;5010716;28;20501;-63
2023/03/28 04:58:22;;;;;;;5.30;3.20;;;;;;;;;;5011498;28;20080;-62
2023/03/28 05:00:49;;;;;;;5.57;3.55;;;;;;;;;;5011009;28;20030;-63
2023/03/28 05:03:19;;;;;;;5.25;3.30;;;;;;;;;;5011282;28;20026;-63
2023/03/28 05:05:50;;;;;;;5.97;3.20;;;;;;;;;;5011352;28;20030;-63
2023/03/28 05:08:16;;;;;;;6.00;3.25;;;;;;;;;;5011383;28;20574;-62
2023/03/28 05:10:43;;;;;;;5.70;3.28;;;;;;;;;;5010417;28;20084;-63
2023/03/28 05:13:09;;;;;;;5.22;3.42;;;;;;;;;;5011661;28;20559;-62
2023/03/28 05:15:35;;;;;;;4.85;3.10;;;;;;;;;;5011253;28;20026;-62
2023/03/28 05:18:01;;;;;;;6.18;3.53;;;;;;;;;;5010881;28;20057;-64
2023/03/28 05:20:28;;;;;;;6.07;4.07;;;;;;;;;;5011548;28;20116;-63
2023/03/28 05:22:54;;;;;;;5.75;3.58;;;;;;;;;;5010446;28;20059;-63
2023/03/28 05:25:20;;;;;;;5.10;3.20;;;;;;;;;;5011080;28;20028;-61
2023/03/28 05:27:46;;;;;;;5.72;3.67;;;;;;;;;;4995842;28;20059;-67
2023/03/28 05:30:13;;;;;;;5.80;3.42;;;;;;;;;;5011075;28;20037;-71
2023/03/28 05:32:39;;;;;;;5.13;3.00;;;;;;;;;;5005994;28;20054;-63
2023/03/28 05:35:06;;;;;;;6.60;3.33;;;;;;;;;;5011863;28;20055;-72
2023/03/28 05:37:32;;;;;;;6.03;3.05;;;;;;;;;;4992102;28;20030;-67
2023/03/28 05:39:58;;;;;;;5.78;3.45;;;;;;;;;;4991520;28;20426;-72
2023/03/28 05:42:24;;;;;;;5.50;3.58;;;;;;;;;;4991603;28;20045;-65
2023/03/28 05:44:50;;;;;;;5.63;2.92;;;;;;;;;;4991371;28;20026;-62
2023/03/28 05:47:17;;;;;;;5.47;3.33;;;;;;;;;;4991463;28;20445;-62
2023/03/28 05:49:43;;;;;;;4.72;3.17;;;;;;;;;;5009000;28;20034;-63
2023/03/28 05:52:10;;;;;;;9.50;3.67;;;;;;;;;;5011094;28;20076;-62
2023/03/28 05:54:36;;;;;;;8.18;3.38;;;;;;;;;;5010856;28;20032;-62
2023/03/28 05:57:02;;;;;;;5.72;3.15;;;;;;;;;;5011525;28;20038;-62
2023/03/28 05:59:28;;;;;;;5.60;3.10;;;;;;;;;;5008420;28;20494;-64
2023/03/28 06:01:55;;;;;;;6.43;3.75;;;;;;;;;;5008841;28;20368;-62
2023/03/28 06:04:21;;;;;;;8.75;3.50;;;;;;;;;;5009792;28;20060;-63
2023/03/28 06:06:48;;;;;;;8.02;4.18;;;;;;;;;;5010454;28;20034;-62
2023/03/28 06:09:15;;;;;;;7.80;3.60;;;;;;;;;;5009323;28;20037;-63
2023/03/28 06:11:41;;;;;;;9.13;4.25;;;;;;;;;;5010641;28;20057;-63
2023/03/28 06:14:08;;;;;;;7.28;4.10;;;;;;;;;;5010873;28;20030;-72
2023/03/28 06:16:34;;;;;;;6.60;4.00;;;;;;;;;;5011224;28;20018;-62
2023/03/28 06:19:00;;;;;;;7.25;4.30;;;;;;;;;;5011482;28;20033;-64
2023/03/28 06:21:26;;;;;;;6.65;4.35;;;;;;;;;;5010933;28;20022;-62
2023/03/28 06:23:52;;;;;;;6.25;3.60;;;;;;;;;;5010645;28;20097;-65
2023/03/28 06:26:18;;;;;;;9.25;4.10;;;;;;;;;;5009992;28;20037;-63
2023/03/28 06:28:44;;;;;;;9.20;3.85;;;;;;;;;;4997540;28;20176;-63
2023/03/28 06:31:11;;;;;;;6.07;3.88;;;;;;;;;;4973522;28;20030;-62
2023/03/28 06:33:40;;;;;;;10.77;4.13;;;;;;;;;;5009968;28;20509;-62
2023/03/28 06:36:06;;;;;;;8.82;3.38;;;;;;;;;;5019756;28;20140;-63
2023/03/28 06:38:33;;;;;;;8.73;3.85;;;;;;;;;;5015425;28;20168;-64
2023/03/28 06:40:59;;;;;;;5.50;3.30;;;;;;;;;;5013588;28;20030;-63
2023/03/28 06:43:25;;;;;;;7.40;4.22;;;;;;;;;;5013967;28;20042;-64
2023/03/28 06:45:51;;;;;;;7.97;3.90;;;;;;;;;;5013893;28;20030;-63
2023/03/28 06:48:18;;;;;;;10.52;4.38;;;;;;;;;;5002689;28;20398;-62
2023/03/28 06:50:50;;;;;;;5.45;3.33;;;;;;;;;;5012775;28;20057;-63
2023/03/28 06:53:16;;;;;;;8.98;3.10;;;;;;;;;;5014143;28;20036;-63
2023/03/28 06:55:42;;;;;;;10.80;3.83;;;;;;;;;;5012130;28;20026;-62
2023/03/28 06:58:08;;;;;;;10.60;3.22;;;;;;;;;;5012960;28;20515;-62
2023/03/28 07:00:35;;;;;;;6.60;3.33;;;;;;;;;;5014437;28;20105;-67
2023/03/28 07:03:01;;;;;;;8.52;3.35;;;;;;;;;;5014547;28;20049;-65
2023/03/28 07:05:27;;;;;;;11.10;3.50;;;;;;;;;;5013100;28;20038;-63
2023/03/28 07:07:53;;;;;;;6.20;3.00;;;;;;;;;;5012661;28;20032;-62
2023/03/28 07:10:19;;;;;;;7.40;3.17;;;;;;;;;;5013692;28;20030;-63
2023/03/28 07:12:45;;;;;;;9.15;3.40;;;;;;;;;;5013222;28;20520;-68
2023/03/28 07:15:11;;;;;;;6.05;3.58;;;;;;;;;;5018543;28;20030;-64
2023/03/28 07:17:37;;;;;;;6.25;3.17;;;;;;;;;;5021044;28;20045;-66
2023/03/28 07:20:03;;;;;;;7.80;3.05;;;;;;;;;;5021971;28;20089;-68
2023/03/28 07:22:30;;;;;;;8.45;3.88;;;;;;;;;;5022561;28;20515;-63
2023/03/28 07:24:56;;;;;;;5.43;3.00;;;;;;;;;;5024607;28;20030;-62
2023/03/28 07:27:22;;;;;;;6.32;3.35;;;;;;;;;;5020983;28;20080;-63
2023/03/28 07:29:48;;;;;;;7.97;3.78;;;;;;;;;;5021657;28;20481;-63
2023/03/28 07:32:14;;;;;;;7.72;3.83;;;;;;;;;;5020250;28;20033;-65
2023/03/28 07:34:40;;;;;;;6.68;3.22;;;;;;;;;;5029543;28;20032;-62
2023/03/28 07:37:07;;;;;;;5.18;2.75;;;;;;;;;;5029044;28;20026;-61
2023/03/28 07:39:33;;;;;;;6.97;3.63;;;;;;;;;;5013442;28;20072;-63
2023/03/28 07:42:00;;;;;;;10.60;3.65;;;;;;;;;;5012919;28;20065;-63
2023/03/28 07:44:26;;;;;;;6.38;3.63;;;;;;;;;;5024798;28;20138;-63
2023/03/28 07:46:51;;;;;;;7.75;3.30;;;;;;;;;;5032310;28;20576;-63
2023/03/28 07:49:19;;;;;;;6.15;3.30;;;;;;;;;;5032782;28;20101;-63
2023/03/28 07:51:46;;;;;;;5.28;3.03;;;;;;;;;;5032583;28;20021;-63
2023/03/28 07:54:16;;;;;;;9.20;3.03;;;;;;;;;;5022876;28;20449;-64
2023/03/28 07:56:43;;;;;;;6.78;3.10;;;;;;;;;;5014918;28;20021;-63
2023/03/28 07:59:12;;;;;;;8.18;3.47;;;;;;;;;;5029246;28;20029;-62
2023/03/28 08:01:38;;;;;;;5.88;2.50;;;;;;;;;;5032189;28;20113;-62
2023/03/28 08:04:04;;;;;;;7.55;2.88;;;;;;;;;;5032700;28;20030;-63
2023/03/28 08:06:33;;;;;;;5.40;3.20;;;;;;;;;;5021578;28;20374;-63
2023/03/28 08:08:59;;;;;;;4.43;2.92;;;;;;;;;;5022479;28;20064;-63
2023/03/28 08:11:26;;;;;;;7.50;3.17;;;;;;;;;;5032319;28;20168;-63
2023/03/28 08:13:52;;;;;;;7.03;3.15;;;;;;;;;;5032168;28;20516;-62
2023/03/28 08:16:18;;;;;;;5.88;3.15;;;;;;;;;;5032292;28;20030;-63
2023/03/28 08:18:44;;;;;;;6.78;3.20;;;;;;;;;;4997636;28;20381;-63
2023/03/28 08:21:10;;;;;;;5.78;2.70;;;;;;;;;;5012315;28;20036;-63
2023/03/28 08:23:36;;;;;;;6.03;2.97;;;;;;;;;;5018198;28;20489;-63
2023/03/28 08:26:06;;;;;;;6.13;2.90;;;;;;;;;;5015296;28;20032;-62
2023/03/28 08:28:33;;;;;;;5.75;2.72;;;;;;;;;;4995025;28;20040;-63
2023/03/28 08:30:59;;;;;;;5.35;2.72;;;;;;;;;;5015273;28;20512;-66
2023/03/28 08:33:25;;;;;;;5.85;3.08;;;;;;;;;;5020092;28;20512;-67
2023/03/28 08:35:52;;;;;;;5.13;2.55;;;;;;;;;;5030097;28;20033;-63
2023/03/28 08:38:18;;;;;;;5.38;2.70;;;;;;;;;;5031731;28;20040;-63
2023/03/28 08:40:48;;;;;;;5.03;2.70;;;;;;;;;;5031511;28;20079;-63
2023/03/28 08:43:19;;;;;;;5.15;3.05;;;;;;;;;;5031719;28;20220;-63
2023/03/28 08:45:54;;;;;;;6.18;3.20;;;;;;;;;;5031431;28;20122;-64
2023/03/28 08:48:31;;;;;;;6.07;3.05;;;;;;;;;;5023384;28;20022;-62
2023/03/28 08:51:00;;;;;;;6.82;2.50;;;;;;;;;;5011845;28;20030;-62
2023/03/28 08:53:42;;;;;;;4.75;2.22;;;;;;;;;;5011988;28;20033;-64
2023/03/28 08:56:09;;;;;;;6.93;2.55;;;;;;;;;;5011789;28;20485;-62
2023/03/28 08:58:46;;;;;;;4.97;2.72;;;;;;;;;;5011059;28;20018;-62
2023/03/28 09:01:12;;;;;;;4.88;2.47;;;;;;;;;;5011578;28;20029;-62
2023/03/28 09:03:39;;;;;;;5.78;2.40;;;;;;;;;;4994096;28;20064;-63
2023/03/28 09:06:05;;;;;;;4.90;2.40;;;;;;;;;;5006181;28;20079;-64
2023/03/28 09:08:37;;;;;;;4.25;2.40;;;;;;;;;;5031639;28;20481;-65
2023/03/28 09:11:10;;;;;;;5.75;2.58;;;;;;;;;;5031612;28;20037;-70
2023/03/28 09:14:00;;;;;;;5.10;2.58;;;;;;;;;;5027728;28;20040;-63
2023/03/28 09:16:34;;;;;;;4.65;2.35;;;;;;;;;;5015713;28;20080;-62
2023/03/28 09:19:27;;;;;;;7.30;2.70;;;;;;;;;;5012133;28;20033;-63
2023/03/28 09:21:59;;;;;;;4.97;2.65;;;;;;;;;;5011269;28;20390;-61
2023/03/28 09:24:25;;;;;;;7.95;2.33;;;;;;;;;;5012427;28;20470;-63
2023/03/28 09:26:56;;;;;;;4.53;2.50;;;;;;;;;;5018063;28;20445;-63
2023/03/28 09:29:24;;;;;;;4.90;2.60;;;;;;;;;;5011442;28;20060;-63
2023/03/28 09:31:55;;;;;;;4.50;2.40;;;;;;;;;;5011176;28;20030;-64
2023/03/28 09:34:26;;;;;;;5.20;2.63;;;;;;;;;;5011480;28;20466;-72
2023/03/28 09:36:54;;;;;;;6.50;2.90;;;;;;;;;;5005524;28;20405;-64
2023/03/28 09:39:20;;;;;;;5.18;2.33;;;;;;;;;;5011347;28;20519;-62
2023/03/28 09:42:04;;;;;;;5.07;2.42;;;;;;;;;;5011438;28;20048;-63
2023/03/28 09:44:36;;;;;;;4.63;2.47;;;;;;;;;;5031252;28;20030;-63
2023/03/28 09:47:03;;;;;;;6.10;2.53;;;;;;;;;;5031370;28;20033;-61
2023/03/28 09:49:29;;;;;;;3.92;2.22;;;;;;;;;;5030911;28;20051;-65
2023/03/28 09:51:56;;;;;;;5.00;2.15;;;;;;;;;;5020212;28;20400;-63
2023/03/28 09:54:33;;;;;;;3.65;2.10;;;;;;;;;;5011334;28;20145;-63
2023/03/28 09:57:00;;;;;;;5.90;2.40;;;;;;;;;;5010930;28;20018;-61
2023/03/28 09:59:27;;;;;;;3.53;2.10;;;;;;;;;;5022980;28;20018;-61
2023/03/28 10:01:54;;;;;;;3.38;2.00;;;;;;;;;;5027935;28;20392;-61
2023/03/28 10:04:31;;;;;;;3.78;2.17;;;;;;;;;;5011117;28;20025;-61
2023/03/28 10:07:18;;;;;;;4.60;2.53;;;;;;;;;;5010776;28;20125;-61
2023/03/28 10:09:47;;;;;;;5.53;2.50;;;;;;;;;;5027386;28;20025;-61
2023/03/28 10:12:17;;;;;;;3.97;2.33;;;;;;;;;;5018300;28;20030;-64
2023/03/28 10:14:46;;;;;;;5.03;2.95;;;;;;;;;;5033209;28;20025;-61
2023/03/28 10:17:26;;;;;;;3.28;2.10;;;;;;;;;;5034559;28;20034;-62
2023/03/28 10:19:52;;;;;;;4.70;2.15;;;;;;;;;;5033834;28;20030;-62
2023/03/28 10:22:23;;;;;;;3.88;1.90;;;;;;;;;;5018987;28;20029;-61
2023/03/28 10:24:49;;;;;;;4.38;2.15;;;;;;;;;;5014464;28;20030;-63
2023/03/28 10:27:22;;;;;;;5.93;2.08;;;;;;;;;;5016343;28;20030;-61
2023/03/28 10:29:50;;;;;;;2.75;1.77;;;;;;;;;;5014140;28;20026;-62
2023/03/28 10:32:24;;;;;;;3.10;1.70;;;;;;;;;;4995628;28;20080;-62
2023/03/28 10:35:00;;;;;;;3.80;1.92;;;;;;;;;;5013936;28;20097;-62
2023/03/28 10:37:27;;;;;;;3.45;1.90;;;;;;;;;;5014342;28;20072;-62
2023/03/28 10:40:01;;;;;;;5.40;2.05;;;;;;;;;;5014185;28;20111;-62
2023/03/28 10:42:27;;;;;;;3.92;2.28;;;;;;;;;;5014090;28;20088;-62
2023/03/28 10:45:00;;;;;;;2.83;1.60;;;;;;;;;;5013159;28;20052;-62
2023/03/28 10:47:26;;;;;;;3.10;1.80;;;;;;;;;;5014257;28;20417;-63
2023/03/28 10:49:53;;;;;;;3.45;1.70;;;;;;;;;;5012566;28;20474;-62
2023/03/28 10:52:19;;;;;;;3.85;1.88;;;;;;;;;;5012782;28;20032;-62
2023/03/28 10:54:50;;;;;;;5.10;1.75;;;;;;;;;;5013833;28;20096;-62
2023/03/28 10:57:21;;;;;;;4.65;2.10;;;;;;;;;;5014042;28;20501;-63
2023/03/28 11:00:00;;;;;;;3.72;1.85;;;;;;;;;;5013779;28;20381;-62
2023/03/28 11:02:36;;;;;;;4.10;2.00;;;;;;;;;;5014056;28;20385;-62
2023/03/28 11:05:02;;;;;;;4.45;2.22;;;;;;;;;;5014173;28;20056;-62
2023/03/28 11:07:36;;;;;;;3.38;1.60;;;;;;;;;;4996106;28;20042;-62
2023/03/28 11:10:08;;;;;;;3.95;1.63;;;;;;;;;;5014155;28;20036;-62
2023/03/28 11:12:34;;;;;;;5.47;1.98;;;;;;;;;;5014230;28;20066;-62
2023/03/28 11:15:06;;;;;;;4.88;2.13;;;;;;;;;;5013843;28;20384;-63
2023/03/28 11:17:32;;;;;;;2.70;1.60;;;;;;;;;;5013967;28;20033;-62
2023/03/28 11:20:16;;;;;;;5.13;2.30;;;;;;;;;;5013356;28;20026;-62
2023/03/28 11:22:42;;;;;;;4.80;1.88;;;;;;;;;;5012585;28;20041;-61
2023/03/28 11:25:18;;;;;;;2.75;1.83;;;;;;;;;;5013518;28;20030;-63
2023/03/28 11:27:50;;;;;;;3.22;1.52;;;;;;;;;;5013256;28;20061;-63
2023/03/28 11:30:29;;;;;;;3.97;1.90;;;;;;;;;;4995850;28;20033;-64
2023/03/28 11:33:05;;;;;;;3.55;2.17;;;;;;;;;;5013150;28;20493;-62
2023/03/28 11:35:31;;;;;;;;;;;;;;;;;;5014127;28;20026;-62
2023/03/28 11:38:04;;;;;;;3.33;1.70;;;;;;;;;;5013075;28;19909;-62
2023/03/28 11:40:36;;;;;;;4.32;2.03;;;;;;;;;;5013455;28;20033;-62
2023/03/28 11:43:03;;;;;;;3.60;1.50;;;;;;;;;;5013278;28;20052;-62
2023/03/28 11:45:31;;;;;;;3.38;1.60;;;;;;;;;;5013024;28;20393;-62
2023/03/28 11:48:07;;;;;;;3.08;1.58;;;;;;;;;;5012791;28;20548;-62
2023/03/28 11:50:53;;;;;;;3.63;1.48;;;;;;;;;;5013312;28;20065;-62
2023/03/28 11:53:28;;;;;;;3.47;1.60;;;;;;;;;;4996275;28;20034;-62
2023/03/28 11:56:01;;;;;;;2.67;1.50;;;;;;;;;;5012636;28;20068;-62
2023/03/28 11:58:29;;;;;;;3.55;1.63;;;;;;;;;;5012861;28;20105;-63
2023/03/28 12:00:55;;;;;;;2.90;1.50;;;;;;;;;;5012452;28;20964;-63
2023/03/28 12:03:27;;;;;;;2.17;1.33;;;;;;;;;;5012758;28;20049;-63
2023/03/28 12:06:11;;;;;;;4.53;1.88;;;;;;;;;;5012350;28;20042;-64
2023/03/28 12:08:40;;;;;;;3.60;1.65;;;;;;;;;;5012580;28;20026;-62
2023/03/28 12:11:19;;;;;;;4.20;1.67;;;;;;;;;;5012705;28;20141;-63
2023/03/28 12:13:52;;;;;;;4.82;1.58;;;;;;;;;;5012222;28;20026;-63
2023/03/28 12:16:22;;;;;;;3.13;1.67;;;;;;;;;;5012603;28;20485;-62
2023/03/28 12:18:56;;;;;;;2.08;1.40;;;;;;;;;;5012236;28;20034;-62
2023/03/28 12:21:29;;;;;;;4.20;1.70;;;;;;;;;;5012524;28;20053;-65
2023/03/28 12:24:14;;;;;;;3.10;1.80;;;;;;;;;;5011917;28;20053;-63
2023/03/28 12:27:00;;;;;;;4.15;1.60;;;;;;;;;;5011996;28;20113;-63
2023/03/28 12:29:43;;;;;;;4.07;1.42;;;;;;;;;;4963231;28;20113;-62
2023/03/28 12:32:25;;;;;;;3.08;1.42;;;;;;;;;;5012107;28;20062;-62
2023/03/28 12:35:12;;;;;;;3.67;1.95;;;;;;;;;;5011694;28;20477;-62
2023/03/28 12:38:01;;;;;;;4.53;1.67;;;;;;;;;;4962540;28;20065;-72
2023/03/28 12:40:34;;;;;;;2.45;1.42;;;;;;;;;;4989507;28;20042;-63
2023/03/28 12:43:00;;;;;;;3.38;1.27;;;;;;;;;;5019100;28;20143;-62
2023/03/28 12:45:30;;;;;;;2.45;1.48;;;;;;;;;;5012507;28;20048;-62
2023/03/28 12:48:01;;;;;;;2.83;1.30;;;;;;;;;;5019539;28;20484;-62
2023/03/28 12:50:29;;;;;;;10.50;1.25;;;;;;;;;;5016947;28;20024;-62
2023/03/28 12:52:57;;;;;;;2.55;1.27;;;;;;;;;;5012828;28;20472;-62
2023/03/28 12:55:26;;;;;;;2.83;1.42;;;;;;;;;;5011981;28;20097;-65
2023/03/28 12:58:11;;;;;;;2.35;1.20;;;;;;;;;;5018849;28;20030;-63
2023/03/28 13:00:50;;;;;;;4.60;1.10;;;;;;;;;;5017249;28;20026;-63
2023/03/28 13:03:25;;;;;;;3.83;1.35;;;;;;;;;;5020500;28;20058;-62
2023/03/28 13:06:18;;;;;;;3.55;1.48;;;;;;;;;;4998577;28;20029;-63
2023/03/28 13:08:50;;;;;;;2.08;1.10;;;;;;;;;;5017521;28;20440;-62
2023/03/28 13:11:19;;;;;;;3.33;1.60;;;;;;;;;;5025540;28;20026;-63
2023/03/28 13:13:48;;;;;;;3.03;1.50;;;;;;;;;;5016292;28;20037;-63
2023/03/28 13:16:15;;;;;;;2.45;1.27;;;;;;;;;;5019758;28;20051;-62
2023/03/28 13:18:46;;;;;;;2.08;1.38;;;;;;;;;;5020433;28;20037;-63
2023/03/28 13:21:12;;;;;;;4.10;1.35;;;;;;;;;;5019496;28;20068;-63
2023/03/28 13:23:45;;;;;;;3.88;1.80;;;;;;;;;;5010055;28;20033;-65
2023/03/28 13:26:12;;;;;;;4.10;1.73;;;;;;;;;;5031412;28;20036;-63
2023/03/28 13:28:50;;;;;;;3.28;1.45;;;;;;;;;;5030941;28;20029;-63
2023/03/28 13:31:16;;;;;;;3.83;1.60;;;;;;;;;;5030980;28;20029;-63
2023/03/28 13:33:46;;;;;;;3.30;1.38;;;;;;;;;;5025993;28;20444;-63
2023/03/28 13:36:16;;;;;;;4.43;1.30;;;;;;;;;;5011481;28;20046;-63
2023/03/28 13:38:47;;;;;;;4.40;1.58;;;;;;;;;;5011168;28;20030;-62
2023/03/28 13:41:32;;;;;;;4.78;1.50;;;;;;;;;;5011484;28;20504;-62
2023/03/28 13:43:59;;;;;;;2.78;1.25;;;;;;;;;;5011554;28;20076;-63
2023/03/28 13:46:28;;;;;;;2.10;1.20;;;;;;;;;;5015193;28;20374;-62
2023/03/28 13:49:06;;;;;;;4.47;1.98;;;;;;;;;;5014933;28;20035;-62
2023/03/28 13:51:36;;;;;;;2.67;1.50;;;;;;;;;;5015596;28;20379;-62
2023/03/28 13:54:02;;;;;;;2.33;1.27;;;;;;;;;;5015631;28;20057;-63
2023/03/28 13:56:32;;;;;;;6.55;1.70;;;;;;;;;;5015173;28;20367;-63
2023/03/28 13:59:00;;;;;;;4.00;1.33;;;;;;;;;;5015041;28;20449;-62
2023/03/28 14:01:32;;;;;;;2.83;1.27;;;;;;;;;;5015149;28;20121;-62
2023/03/28 14:03:58;;;;;;;3.03;1.30;;;;;;;;;;5014843;28;20022;-62
2023/03/28 14:06:26;;;;;;;4.22;1.67;;;;;;;;;;5014972;28;20041;-63
2023/03/28 14:08:53;;;;;;;4.40;1.52;;;;;;;;;;4996958;28;20362;-62
2023/03/28 14:11:22;;;;;;;2.72;1.50;;;;;;;;;;5014814;28;20468;-63
2023/03/28 14:13:48;;;;;;;3.38;1.50;;;;;;;;;;4997076;28;20050;-65
2023/03/28 14:16:15;;;;;;;5.95;1.60;;;;;;;;;;5014711;28;20026;-63
2023/03/28 14:18:43;;;;;;;4.25;1.50;;;;;;;;;;5014516;28;20492;-65
2023/03/28 14:21:09;;;;;;;3.65;1.63;;;;;;;;;;5014753;28;20025;-62
2023/03/28 14:23:40;;;;;;;3.97;1.55;;;;;;;;;;5014465;28;20381;-63
2023/03/28 14:26:22;;;;;;;1.83;1.30;;;;;;;;;;5014519;28;20033;-65
2023/03/28 14:28:49;;;;;;;4.07;1.42;;;;;;;;;;5014453;28;20092;-63
2023/03/28 14:31:29;;;;;;;3.58;1.25;;;;;;;;;;5014660;28;20025;-63
2023/03/28 14:33:58;;;;;;;2.63;1.20;;;;;;;;;;5014215;28;20042;-65
2023/03/28 14:36:29;;;;;;;3.47;1.30;;;;;;;;;;5014545;28;20101;-62
2023/03/28 14:39:00;;;;;;;2.95;1.30;;;;;;;;;;5014108;28;20033;-62
2023/03/28 14:41:28;;;;;;;3.70;1.20;;;;;;;;;;5014412;28;20092;-63
2023/03/28 14:43:55;;;;;;;3.15;1.42;;;;;;;;;;5014059;28;20034;-65
2023/03/28 14:46:23;;;;;;;3.80;1.60;;;;;;;;;;5014098;28;20049;-62
2023/03/28 14:48:52;;;;;;;5.28;1.40;;;;;;;;;;5014021;28;20477;-64
2023/03/28 14:51:19;;;;;;;3.30;1.42;;;;;;;;;;5014147;28;20536;-70
2023/03/28 14:53:48;;;;;;;4.25;1.40;;;;;;;;;;4996347;28;20018;-62
2023/03/28 14:56:18;;;;;;;2.35;1.02;;;;;;;;;;5013219;28;20025;-63